Detall de PIREP

Printer-friendly versionPDF version

[2014/02/23 17:25:00]
Flight IATA:CT1004
Pilot Number:012
Company ICAO:CAT
Aircraft Type:C750/F
PAX:4
Departing Airport: LPPR
Destination Airport: LEBL
Alternate Airport:LEPA
Online: VATSIM
Route:PESUL DCT RIVRO DCT BARDI UM191 DIPOL UN870 PONEN UT600 CASPE
Flight Level:F300
No Slew and time accel
No pause
Crash detect
Detect pilot in Cockpit between each 30 and 45 minutes
17:25 Zero fuel Weight: 22837 Lbs, Fuel Weight: 4755 Lbs
17:25 VATSIM:LPPR 231700Z 21010KT 180V240 9999 FEW025 14/07 Q1009
17:25 VATSIM:LEBL 231700Z 21008KT 9999 FEW015 13/10 Q1018 NOSIG
17:25 MWC 2014 BARCELONA CHARTER
17:31 Parking Brakes off
17:35 Take-off
17:35 Take off Weight: 27487 Lbs
17:35 Wind: 217º @ 010 Knots Heading: 170º
17:35 POS N41º 14´ 46´´ W008º 40´ 51´´
17:36 Gear Up: 178 Knots
17:36 Flaps:3 at 178 Knots
17:36 Flaps:2 at 175 Knots
17:36 Flaps:0 at 174 Knots
17:43 TOC
17:43 Fuel Weight: 4287 Lb
17:51 Wind:200º@054 Knots Heading: 104º Ground Speed: 503 Knots Altitude 29901 ft
18:06 Wind:206º@035 Knots Heading: 084º Ground Speed: 515 Knots Altitude 30016 ft
18:21 Wind:225º@016 Knots Heading: 084º Ground Speed: 509 Knots Altitude 30039 ft
18:21 TOD
18:21 Fuel Weight: 3141 Lb
18:29 TOC
18:29 Fuel Weight: 2959 Lb
18:33 TOD
18:33 Fuel Weight: 2874 Lb
18:36 Wind:211º@011 Knots Heading: 087º Ground Speed: 424 Knots Altitude 17299 ft
18:46 Gear Down: 165 Knots
18:46 Flaps:2 at 164 Knots
18:47 Flaps:3 at 133 Knots
18:47 Flaps:4 at 133 Knots
18:47 Flaps:5 at 129 Knots
18:50 TouchDown:Rate -266 ft/min Speed: 112 Knots
18:51 Wind:209º@006 Knots Heading: 243º Ground Speed: 106 Knots Altitude 016 ft
18:51 VATSIM:LEBL 231830Z 22007KT 9999 SCT014 12/09 Q1019 NOSIG
18:51 Land
18:51 Wind:209º@006 Knots
18:51 Heading: 255º
18:51 Flight Duration: 01:16
18:51 Landing Weight: 25566 Lbs
18:51 POS N41º 18´ 04´´ E002º 05´ 25´´
18:52 Parking brakes on
18:52 Block to Block Duration: 01:21
18:52 Final Fuel: 2720 Lbls
18:52 Spent Fuel: 2034 Lbls
18:52 Flight Length: 532 NM
18:52 TOD Land Length: 77 NM

Exportar CSV

Powered by Drupal - Modified by Danger4k